Time;durP1;ratioP1;P1;durP2;ratioP2;P2;SDS_P1;SDS_P2;PMS_P1;PMS_P2;Temp;Humidity;BMP_temperature;BMP_pressure;BME280_temperature;BME280_humidity;BME280_pressure;Samples;Min_cycle;Max_cycle;Signal;HPM_P1;HPM_P2
2022/03/22 00:00:29;;;;;;;18.57;13.03;;;4.00;59.20;;;;;;4961746;28;20232;-89
2022/03/22 00:02:56;;;;;;;19.30;12.30;;;4.00;59.20;;;;;;4981067;28;20220;-88
2022/03/22 00:05:23;;;;;;;19.40;12.37;;;4.00;59.00;;;;;;4983128;28;20211;-89
2022/03/22 00:07:51;;;;;;;18.27;12.27;;;4.00;59.40;;;;;;4977407;28;20263;-89
2022/03/22 00:10:20;;;;;;;17.07;12.23;;;4.00;60.10;;;;;;4986124;28;22143;-88
2022/03/22 00:12:49;;;;;;;16.93;11.70;;;3.90;60.70;;;;;;4989586;28;20230;-89
2022/03/22 00:15:18;;;;;;;18.33;12.17;;;3.80;60.60;;;;;;4978141;28;20193;-89
2022/03/22 00:17:45;;;;;;;16.77;12.13;;;3.80;61.10;;;;;;4977922;28;20228;-89
2022/03/22 00:20:15;;;;;;;18.83;12.17;;;3.70;61.80;;;;;;4976692;28;20247;-89
2022/03/22 00:22:43;;;;;;;19.33;12.27;;;3.60;62.70;;;;;;4975703;28;20252;-88
2022/03/22 00:25:11;;;;;;;18.97;12.60;;;3.50;63.30;;;;;;4943746;28;20205;-89
2022/03/22 00:27:51;;;;;;;22.37;12.57;;;3.60;63.60;;;;;;4981476;28;20573;-89
2022/03/22 00:30:19;;;;;;;17.57;11.97;;;3.70;63.40;;;;;;4978881;28;20592;-89
2022/03/22 00:32:52;;;;;;;17.20;11.33;;;3.70;62.70;;;;;;4990143;28;20255;-88
2022/03/22 00:35:19;;;;;;;17.30;12.00;;;3.70;62.20;;;;;;4973104;28;20233;-88
2022/03/22 00:37:49;;;;;;;18.70;12.63;;;3.60;63.20;;;;;;4975535;28;20640;-88
2022/03/22 00:40:17;;;;;;;17.30;11.53;;;3.50;63.80;;;;;;4977901;28;20259;-88
2022/03/22 00:42:47;;;;;;;17.93;11.97;;;3.50;64.00;;;;;;4978575;28;20224;-89
2022/03/22 00:45:18;;;;;;;20.43;11.50;;;3.50;64.10;;;;;;4963725;28;20630;-89
2022/03/22 00:47:46;;;;;;;15.70;11.47;;;3.40;65.10;;;;;;4980523;28;20699;-88
2022/03/22 00:50:14;;;;;;;21.30;12.13;;;3.40;67.00;;;;;;4979308;28;20211;-89
2022/03/22 00:52:41;;;;;;;21.10;12.70;;;3.40;66.00;;;;;;4983681;28;20603;-88
2022/03/22 00:55:11;;;;;;;19.40;11.93;;;3.40;65.20;;;;;;4970468;28;20216;-89
2022/03/22 00:57:40;;;;;;;19.20;11.80;;;3.30;66.90;;;;;;4970218;28;20242;-89
2022/03/22 01:00:12;;;;;;;17.70;11.97;;;3.30;67.30;;;;;;4976970;28;20206;-88
2022/03/22 01:02:41;;;;;;;18.83;11.67;;;3.30;68.00;;;;;;4976151;28;20240;-89
2022/03/22 01:05:11;;;;;;;19.30;12.40;;;3.20;67.80;;;;;;4984297;28;20204;-88
2022/03/22 01:07:39;;;;;;;19.37;11.93;;;3.20;67.80;;;;;;4976080;28;20696;-89
2022/03/22 01:10:09;;;;;;;17.33;11.60;;;3.20;67.80;;;;;;4977664;28;20207;-89
2022/03/22 01:12:37;;;;;;;22.13;12.43;;;3.10;67.80;;;;;;4982698;28;20239;-88
2022/03/22 01:15:06;;;;;;;15.07;11.47;;;3.10;67.80;;;;;;4976263;28;20288;-88
2022/03/22 01:17:35;;;;;;;16.63;11.57;;;3.10;67.80;;;;;;4970986;28;20247;-88
2022/03/22 01:20:05;;;;;;;19.13;12.33;;;3.10;67.80;;;;;;4979620;28;20205;-88
2022/03/22 01:22:32;;;;;;;19.37;12.33;;;3.00;67.60;;;;;;4975929;28;20237;-89
2022/03/22 01:25:00;;;;;;;18.50;12.07;;;2.90;67.60;;;;;;4976166;28;20208;-89
2022/03/22 01:27:27;;;;;;;17.20;11.60;;;2.90;69.30;;;;;;4983816;28;20239;-89
2022/03/22 01:29:54;;;;;;;16.33;11.60;;;2.90;70.60;;;;;;4981468;28;20732;-88
2022/03/22 01:32:21;;;;;;;18.10;11.87;;;2.90;70.10;;;;;;4959523;28;20243;-88
2022/03/22 01:34:50;;;;;;;16.27;11.80;;;2.80;69.90;;;;;;4980206;28;20203;-88
2022/03/22 01:37:17;;;;;;;16.10;12.20;;;2.80;68.50;;;;;;4976150;28;20239;-88
2022/03/22 01:39:44;;;;;;;16.63;11.10;;;2.80;70.30;;;;;;4975731;28;20291;-89
2022/03/22 01:42:12;;;;;;;17.47;12.10;;;2.80;70.80;;;;;;4973744;28;20694;-89
2022/03/22 01:44:39;;;;;;;18.63;11.83;;;2.80;70.80;;;;;;4975088;28;20211;-89
2022/03/22 01:47:07;;;;;;;17.77;11.90;;;2.70;70.00;;;;;;4965691;28;20228;-88
2022/03/22 01:49:34;;;;;;;19.23;12.20;;;2.70;69.90;;;;;;4975679;28;20660;-89
2022/03/22 01:52:04;;;;;;;17.50;11.90;;;2.60;71.60;;;;;;4975548;28;20239;-89
2022/03/22 01:54:31;;;;;;;20.97;11.10;;;2.40;70.70;;;;;;4975902;28;20216;-89
2022/03/22 01:57:00;;;;;;;17.40;11.60;;;2.30;70.30;;;;;;4962535;28;20230;-88
2022/03/22 01:59:27;;;;;;;19.33;10.63;;;2.40;70.50;;;;;;4968589;28;20208;-89
2022/03/22 02:07:36;;;;;;;15.93;11.10;;;2.50;69.80;;;;;;4974100;28;20762;-89
2022/03/22 02:10:04;;;;;;;14.93;10.47;;;2.50;67.20;;;;;;4978432;28;20202;-89
2022/03/22 02:12:33;;;;;;;17.53;11.13;;;2.40;68.60;;;;;;4973261;28;20257;-89
2022/03/22 02:15:00;;;;;;;17.87;10.83;;;2.40;67.80;;;;;;4984015;28;20204;-88
2022/03/22 02:17:27;;;;;;;16.33;10.87;;;2.40;69.20;;;;;;4984091;28;20239;-88
2022/03/22 02:19:55;;;;;;;14.10;10.30;;;2.30;69.40;;;;;;4979416;28;20216;-88
2022/03/22 02:22:30;;;;;;;17.93;10.63;;;2.30;69.20;;;;;;4950525;28;20575;-88
2022/03/22 02:24:58;;;;;;;18.83;11.20;;;2.20;70.00;;;;;;4979831;28;20207;-89
2022/03/22 02:27:28;;;;;;;14.00;10.40;;;2.10;71.20;;;;;;4977202;28;20239;-89
2022/03/22 02:29:55;;;;;;;16.80;10.30;;;2.10;73.30;;;;;;4978795;28;20287;-89
2022/03/22 02:32:24;;;;;;;15.20;10.70;;;2.20;71.40;;;;;;4976756;28;20239;-89
2022/03/22 02:34:51;;;;;;;15.20;10.97;;;2.20;70.50;;;;;;4961984;28;20311;-89
2022/03/22 02:37:18;;;;;;;14.73;10.23;;;2.10;71.00;;;;;;4981749;28;20242;-89
2022/03/22 02:39:46;;;;;;;14.53;10.60;;;2.00;71.80;;;;;;4978965;28;20202;-89
2022/03/22 02:42:14;;;;;;;15.03;10.40;;;2.00;74.20;;;;;;4993613;28;20231;-88
2022/03/22 02:44:41;;;;;;;16.13;9.90;;;1.90;74.70;;;;;;4982526;28;20205;-89
2022/03/22 02:47:08;;;;;;;15.63;10.27;;;1.90;74.20;;;;;;4966869;28;20314;-89
2022/03/22 02:49:35;;;;;;;14.33;10.20;;;2.00;73.80;;;;;;4984045;28;20304;-89
2022/03/22 02:52:04;;;;;;;13.83;9.93;;;2.10;72.60;;;;;;4983857;28;20260;-89
2022/03/22 02:54:34;;;;;;;16.03;10.70;;;2.20;71.40;;;;;;4988252;28;20210;-88
2022/03/22 02:57:01;;;;;;;15.90;10.67;;;2.30;70.20;;;;;;4990095;28;20240;-87
2022/03/22 02:59:30;;;;;;;16.10;10.13;;;2.30;70.20;;;;;;4993145;28;20253;-87
2022/03/22 03:01:58;;;;;;;14.47;10.60;;;2.20;70.60;;;;;;4985716;28;20228;-87
2022/03/22 03:04:25;;;;;;;13.57;10.57;;;2.20;71.60;;;;;;4973294;28;20216;-87
2022/03/22 03:06:52;;;;;;;17.07;10.73;;;2.20;71.00;;;;;;4988655;28;20244;-88
2022/03/22 03:09:20;;;;;;;14.00;9.93;;;2.20;71.00;;;;;;4991869;28;20247;-87
2022/03/22 03:11:47;;;;;;;14.80;10.47;;;2.20;71.30;;;;;;4989712;28;20711;-88
2022/03/22 03:17:05;;;;;;;15.50;9.83;;;2.10;71.50;;;;;;4973132;28;20252;-88
2022/03/22 03:19:32;;;;;;;14.03;9.97;;;2.10;70.70;;;;;;4999427;28;20314;-87
2022/03/22 03:21:59;;;;;;;13.57;10.00;;;2.20;71.30;;;;;;4989021;28;20247;-87
2022/03/22 03:24:27;;;;;;;13.07;10.10;;;2.20;70.40;;;;;;4978492;28;20220;-87
2022/03/22 03:26:54;;;;;;;13.13;9.97;;;2.20;70.90;;;;;;4992886;28;20265;-88
2022/03/22 03:29:22;;;;;;;14.37;9.57;;;2.00;71.50;;;;;;4989247;28;20216;-89
2022/03/22 03:31:49;;;;;;;13.17;9.90;;;1.80;74.40;;;;;;4987940;28;20236;-87
2022/03/22 03:34:19;;;;;;;22.17;10.00;;;1.90;74.30;;;;;;4989679;28;20215;-88
2022/03/22 03:36:47;;;;;;;18.60;10.27;;;1.90;73.80;;;;;;4989922;28;20235;-88
2022/03/22 03:39:15;;;;;;;15.23;10.50;;;1.90;74.00;;;;;;4998027;28;20228;-88
2022/03/22 03:41:56;;;;;;;13.23;10.23;;;1.90;73.70;;;;;;4992462;28;20318;-87
2022/03/22 03:47:11;;;;;;;16.43;10.00;;;1.80;73.30;;;;;;4992719;28;20243;-87
2022/03/22 03:49:42;;;;;;;13.87;10.03;;;1.80;73.30;;;;;;4989866;28;20218;-87
2022/03/22 03:52:15;;;;;;;14.60;10.03;;;1.90;74.10;;;;;;4991041;28;20223;-87
2022/03/22 03:54:43;;;;;;;15.27;10.10;;;1.80;73.70;;;;;;4998560;28;20626;-88
2022/03/22 03:57:11;;;;;;;16.90;9.87;;;1.70;74.70;;;;;;4956745;28;20242;-88
2022/03/22 03:59:40;;;;;;;14.17;9.57;;;1.70;74.60;;;;;;4997351;28;20211;-88
2022/03/22 04:02:10;;;;;;;14.97;10.30;;;1.70;75.90;;;;;;4981618;28;20230;-87
2022/03/22 04:07:50;;;;;;;14.00;9.97;;;1.40;76.20;;;;;;4988260;28;20322;-88
2022/03/22 04:10:17;;;;;;;16.17;10.27;;;1.30;77.40;;;;;;4991340;28;20265;-88
2022/03/22 04:12:47;;;;;;;14.73;10.30;;;1.40;77.70;;;;;;4998883;28;20271;-87
2022/03/22 04:15:14;;;;;;;15.30;10.27;;;1.50;77.80;;;;;;4972668;28;20204;-88
2022/03/22 04:17:48;;;;;;;16.57;10.57;;;1.50;77.70;;;;;;4992735;28;20222;-88
2022/03/22 04:20:17;;;;;;;15.97;10.63;;;1.50;77.50;;;;;;4996839;28;20287;-88
2022/03/22 04:35:01;;;;;;;14.57;10.13;;;1.40;77.30;;;;;;4986905;28;20241;-87
2022/03/22 04:49:43;;;;;;;14.33;10.00;;;1.20;78.20;;;;;;4970264;28;20286;-88
2022/03/22 05:01:07;;;;;;;21.00;10.53;;;1.10;78.10;;;;;;4987245;28;20210;-88
2022/03/22 05:06:47;;;;;;;15.20;10.40;;;1.00;78.90;;;;;;4984613;28;20280;-88
2022/03/22 05:09:16;;;;;;;16.40;10.73;;;0.90;79.00;;;;;;4985073;28;20208;-88
2022/03/22 05:11:44;;;;;;;15.27;9.73;;;0.90;79.40;;;;;;4990151;28;20235;-89
2022/03/22 05:17:01;;;;;;;17.40;10.07;;;1.10;78.50;;;;;;4976997;28;20233;-87
2022/03/22 05:19:48;;;;;;;14.00;10.20;;;1.20;78.10;;;;;;4989035;28;20212;-87
2022/03/22 05:22:27;;;;;;;14.87;10.47;;;1.30;77.90;;;;;;4965170;28;20240;-87
2022/03/22 05:24:59;;;;;;;17.87;9.83;;;1.30;78.20;;;;;;4985195;28;20275;-87
2022/03/22 05:27:48;;;;;;;15.50;10.40;;;1.30;78.00;;;;;;4985348;28;20639;-88
2022/03/22 05:33:00;;;;;;;14.77;10.20;;;1.30;77.80;;;;;;4947044;29;20227;-88
2022/03/22 05:35:33;;;;;;;14.60;10.40;;;1.30;77.70;;;;;;4954209;29;20217;-88
2022/03/22 05:38:02;;;;;;;13.70;9.67;;;1.30;78.20;;;;;;4947485;29;20221;-88
2022/03/22 05:50:47;;;;;;;14.50;10.23;;;1.40;77.40;;;;;;4968821;28;20787;-88
2022/03/22 05:56:34;;;;;;;16.53;11.17;;;1.40;77.50;;;;;;4948223;29;20210;-88
2022/03/22 05:59:32;;;;;;;19.10;11.57;;;1.50;77.40;;;;;;4952100;29;20208;-87
2022/03/22 06:02:06;;;;;;;26.17;16.47;;;1.80;81.10;;;;;;4978989;28;20233;-87
2022/03/22 06:04:33;;;;;;;29.67;19.60;;;2.20;79.60;;;;;;4994633;28;20207;-86
2022/03/22 06:07:02;;;;;;;23.43;17.80;;;2.40;76.30;;;;;;4970691;28;20232;-87
2022/03/22 06:09:31;;;;;;;23.57;15.73;;;2.30;75.20;;;;;;4953153;28;20208;-87
2022/03/22 06:11:59;;;;;;;20.10;14.17;;;2.50;77.60;;;;;;4986209;28;20252;-87
2022/03/22 06:14:47;;;;;;;19.37;12.60;;;2.70;76.70;;;;;;4989882;28;20292;-90
2022/03/22 06:19:59;;;;;;;19.13;11.93;;;3.00;72.00;;;;;;4967747;28;20259;-87
2022/03/22 06:22:26;;;;;;;17.57;11.10;;;3.10;73.50;;;;;;4986695;28;20236;-90
2022/03/22 06:24:54;;;;;;;15.30;10.83;;;3.20;68.00;;;;;;4966697;28;20408;-84
2022/03/22 06:27:23;;;;;;;16.87;10.87;;;3.10;67.80;;;;;;4983647;28;20236;-85
2022/03/22 06:29:50;;;;;;;15.77;10.23;;;2.80;67.50;;;;;;4984291;28;20256;-85
2022/03/22 06:32:22;;;;;;;19.43;11.23;;;2.90;70.90;;;;;;4982189;28;20280;-89
2022/03/22 06:34:51;;;;;;;16.33;10.83;;;2.70;67.30;;;;;;4981318;28;20232;-87
2022/03/22 06:37:18;;;;;;;16.50;10.80;;;2.60;67.20;;;;;;4970569;28;20232;-88
2022/03/22 06:39:45;;;;;;;23.43;10.73;;;2.80;67.40;;;;;;4989808;28;20272;-88
2022/03/22 06:42:13;;;;;;;16.70;10.50;;;3.10;67.80;;;;;;4984592;28;20224;-88
2022/03/22 06:44:40;;;;;;;16.73;10.43;;;3.60;63.80;;;;;;4987389;28;20236;-87
2022/03/22 06:47:07;;;;;;;15.63;9.90;;;4.30;58.50;;;;;;4979333;28;20220;-82
2022/03/22 06:49:36;;;;;;;15.33;9.20;;;4.70;54.30;;;;;;4985518;28;20296;-85
2022/03/22 06:52:03;;;;;;;13.93;9.50;;;5.40;49.40;;;;;;4980779;28;20252;-85
2022/03/22 06:54:32;;;;;;;12.53;9.37;;;6.20;45.30;;;;;;4986474;28;20217;-86
2022/03/22 06:57:01;;;;;;;17.20;9.93;;;6.40;43.80;;;;;;4990838;28;20258;-86
2022/03/22 06:59:29;;;;;;;13.60;9.27;;;6.90;40.30;;;;;;4987388;28;20204;-86
2022/03/22 07:01:57;;;;;;;12.73;9.80;;;7.40;35.00;;;;;;4986411;28;20224;-84
2022/03/22 07:04:25;;;;;;;12.88;9.35;;;7.50;33.60;;;;;;4987608;28;20240;-85
2022/03/22 07:06:55;;;;;;;14.55;9.90;;;7.40;35.30;;;;;;4986524;28;20224;-85
2022/03/22 07:09:23;;;;;;;14.75;9.48;;;8.50;32.20;;;;;;4987936;28;20196;-86
2022/03/22 07:12:04;;;;;;;17.23;9.43;;;8.90;30.00;;;;;;4989088;28;20232;-86
2022/03/22 07:14:38;;;;;;;16.45;9.88;;;8.60;29.60;;;;;;4991790;28;20255;-86
2022/03/22 07:17:07;;;;;;;12.65;9.45;;;7.80;31.20;;;;;;4985414;28;20232;-85
2022/03/22 07:19:35;;;;;;;13.07;9.52;;;7.20;32.70;;;;;;4988634;28;20209;-85
2022/03/22 07:22:05;;;;;;;14.80;9.85;;;7.20;34.20;;;;;;4986556;28;20251;-86
2022/03/22 07:24:33;;;;;;;19.58;10.05;;;7.10;33.70;;;;;;4986639;28;20771;-86
2022/03/22 07:27:00;;;;;;;20.93;11.03;;;6.70;35.30;;;;;;4986984;28;20304;-86
2022/03/22 07:29:28;;;;;;;18.87;11.07;;;6.50;36.50;;;;;;4971362;28;20209;-85
2022/03/22 07:31:56;;;;;;;16.60;10.03;;;6.60;39.60;;;;;;4972092;28;20695;-86
2022/03/22 07:34:37;;;;;;;13.80;9.83;;;6.60;40.00;;;;;;4986201;28;20228;-84
2022/03/22 07:37:06;;;;;;;15.00;9.30;;;6.80;42.30;;;;;;4987418;28;20251;-85
2022/03/22 07:39:35;;;;;;;15.75;10.05;;;7.40;38.40;;;;;;4988854;28;20626;-85
2022/03/22 07:42:24;;;;;;;17.90;10.63;;;7.70;35.20;;;;;;4988645;28;20216;-85
2022/03/22 07:53:26;;;;;;;17.08;9.82;;;9.20;33.90;;;;;;4978687;28;20246;-87
2022/03/22 07:59:26;;;;;;;;;;;;;;;;;;;;;
2022/03/22 09:06:07;;;;;;;15.52;10.65;;;14.70;15.40;;;;;;4864201;29;20228;-91
2022/03/22 09:17:26;;;;;;;14.25;9.73;;;15.00;14.80;;;;;;4790919;29;20194;-89
2022/03/22 09:22:42;;;;;;;14.68;10.10;;;17.20;12.80;;;;;;4928469;29;20253;-86
2022/03/22 09:25:10;;;;;;;10.63;9.43;;;18.10;9.70;;;;;;4903058;29;20210;-86
2022/03/22 09:27:37;;;;;;;11.65;9.10;;;18.80;10.20;;;;;;4932400;28;20240;-87
2022/03/22 09:30:05;;;;;;;15.15;10.00;;;20.90;9.60;;;;;;4959992;28;20204;-83
2022/03/22 09:32:33;;;;;;;12.32;10.95;;;21.60;7.40;;;;;;4975052;28;20259;-83
2022/03/22 09:35:00;;;;;;;11.30;9.95;;;21.90;6.80;;;;;;4973616;28;20200;-83
2022/03/22 09:37:28;;;;;;;13.18;10.07;;;21.10;6.90;;;;;;4971674;28;20227;-84
2022/03/22 09:39:57;;;;;;;14.15;10.63;;;20.80;7.60;;;;;;4973842;28;20195;-83
2022/03/22 09:42:24;;;;;;;15.98;11.20;;;22.10;6.80;;;;;;4978275;28;20244;-82
2022/03/22 09:44:51;;;;;;;26.08;11.73;;;23.60;4.80;;;;;;4984516;28;20297;-83
2022/03/22 09:47:18;;;;;;;12.57;11.13;;;24.00;5.70;;;;;;4977075;28;20236;-84
2022/03/22 09:49:46;;;;;;;13.48;12.00;;;24.30;4.90;;;;;;4982708;28;20570;-85
2022/03/22 09:52:14;;;;;;;16.63;11.25;;;24.80;3.00;;;;;;4974500;28;20249;-84
2022/03/22 09:54:42;;;;;;;17.15;11.73;;;25.00;4.60;;;;;;4980399;28;20224;-84
2022/03/22 09:57:10;;;;;;;14.77;11.60;;;24.60;3.20;;;;;;4974195;28;20236;-85
2022/03/22 09:59:38;;;;;;;13.85;11.48;;;24.10;4.00;;;;;;4972522;28;20200;-85
2022/03/22 10:02:06;;;;;;;16.13;11.35;;;23.50;3.60;;;;;;4970651;28;20247;-85
2022/03/22 10:04:41;;;;;;;13.82;11.80;;;23.20;4.50;;;;;;4972923;28;20208;-84
2022/03/22 10:07:09;;;;;;;13.90;10.75;;;23.50;4.20;;;;;;4967801;28;20220;-84
2022/03/22 10:09:39;;;;;;;13.35;11.25;;;23.50;4.80;;;;;;4972490;28;20211;-84
2022/03/22 10:12:07;;;;;;;13.63;11.85;;;24.00;3.90;;;;;;4973640;28;20215;-82
2022/03/22 10:14:38;;;;;;;14.80;11.18;;;21.20;5.20;;;;;;4969326;28;20699;-82
2022/03/22 10:17:11;;;;;;;15.35;11.70;;;22.90;5.20;;;;;;4972786;28;20228;-83
2022/03/22 10:19:43;;;;;;;13.85;12.38;;;23.80;3.80;;;;;;4972302;28;20208;-84
2022/03/22 10:22:11;;;;;;;17.83;11.15;;;23.30;4.20;;;;;;4978248;28;20219;-84
2022/03/22 10:24:49;;;;;;;13.25;10.88;;;24.20;4.10;;;;;;4976767;28;20219;-82
2022/03/22 10:27:25;;;;;;;12.10;10.85;;;23.80;3.80;;;;;;4983437;28;20291;-82
2022/03/22 10:29:55;;;;;;;13.52;10.13;;;23.90;3.40;;;;;;4981993;28;20203;-83
2022/03/22 10:32:32;;;;;;;12.25;10.70;;;23.80;3.80;;;;;;4975828;28;20228;-84
2022/03/22 10:35:10;;;;;;;14.48;10.85;;;23.20;3.40;;;;;;4960888;28;20226;-84
2022/03/22 10:37:37;;;;;;;12.02;10.55;;;23.40;3.60;;;;;;4983635;28;20271;-84
2022/03/22 10:40:20;;;;;;;12.77;10.23;;;21.80;4.10;;;;;;4977472;28;20571;-84
2022/03/22 10:42:58;;;;;;;15.48;10.40;;;21.50;5.10;;;;;;4975518;28;20231;-83
2022/03/22 10:45:45;;;;;;;13.35;10.07;;;21.70;4.70;;;;;;4975394;28;20254;-83
2022/03/22 10:48:16;;;;;;;16.10;9.73;;;22.30;5.10;;;;;;4977203;28;20227;-84
2022/03/22 10:50:46;;;;;;;11.70;10.10;;;22.30;5.00;;;;;;4960667;28;20225;-84
2022/03/22 10:53:16;;;;;;;13.15;10.07;;;22.50;3.90;;;;;;4977961;28;20228;-84
2022/03/22 10:55:44;;;;;;;12.07;10.15;;;20.00;6.40;;;;;;4978959;28;20201;-84
2022/03/22 10:58:19;;;;;;;11.75;10.45;;;21.40;5.50;;;;;;4958064;28;20243;-84
2022/03/22 11:00:49;;;;;;;14.75;10.18;;;22.10;4.50;;;;;;4978342;28;20671;-84
2022/03/22 11:03:18;;;;;;;10.70;9.63;;;21.90;4.70;;;;;;4979593;28;20282;-84
2022/03/22 11:05:48;;;;;;;10.80;9.68;;;22.30;4.30;;;;;;4978919;28;20200;-84
2022/03/22 11:08:25;;;;;;;10.65;9.60;;;22.40;4.70;;;;;;4978143;28;20311;-84
2022/03/22 11:10:53;;;;;;;12.02;9.85;;;22.60;3.70;;;;;;4978591;28;20208;-84
2022/03/22 11:13:20;;;;;;;12.18;9.75;;;22.30;4.80;;;;;;4973207;28;20270;-84
2022/03/22 11:15:50;;;;;;;17.17;11.73;;;21.20;4.90;;;;;;4977875;28;20239;-86
2022/03/22 11:18:24;;;;;;;14.23;9.95;;;20.80;6.30;;;;;;4988879;28;20247;-88
2022/03/22 11:20:53;;;;;;;12.57;10.35;;;20.00;7.00;;;;;;4978668;28;20216;-89
2022/03/22 11:23:22;;;;;;;14.88;10.07;;;19.40;6.70;;;;;;4981796;28;20318;-89
2022/03/22 11:25:50;;;;;;;16.38;10.40;;;18.30;8.00;;;;;;4983437;28;20219;-89
2022/03/22 11:34:46;;;;;;;12.13;9.15;;;17.30;9.20;;;;;;4948062;28;20242;-90
2022/03/22 11:37:14;;;;;;;14.88;9.20;;;16.40;8.60;;;;;;4990782;28;20224;-89
2022/03/22 11:43:18;;;;;;;13.20;9.32;;;15.80;10.30;;;;;;4987825;28;20252;-89
2022/03/22 11:46:00;;;;;;;12.98;8.85;;;15.90;10.80;;;;;;4989948;28;20265;-90
2022/03/22 11:54:45;;;;;;;13.70;9.70;;;16.00;10.90;;;;;;4982963;28;20220;-88
2022/03/22 13:05:27;;;;;;;9.48;8.02;;;15.90;8.30;;;;;;4630968;30;20244;-92
2022/03/22 13:30:09;;;;;;;12.25;9.10;;;16.10;9.90;;;;;;4993240;28;20216;-90
2022/03/22 13:32:47;;;;;;;11.63;8.63;;;16.10;10.50;;;;;;4947910;28;20235;-89
2022/03/22 13:38:11;;;;;;;9.88;8.02;;;16.20;10.50;;;;;;5005407;28;20227;-90
2022/03/22 13:56:56;;;;;;;8.85;7.18;;;16.20;8.50;;;;;;5003912;28;20223;-89
2022/03/22 14:00:16;;;;;;;10.45;6.82;;;16.20;8.50;;;;;;4999944;28;20262;-89
2022/03/22 14:11:57;;;;;;;7.88;6.18;;;16.10;8.50;;;;;;5007241;28;20246;-89
2022/03/22 14:28:41;;;;;;;6.55;5.70;;;16.20;8.90;;;;;;5008540;28;20227;-89
2022/03/22 14:31:09;;;;;;;7.95;5.97;;;16.20;9.40;;;;;;5007496;28;20259;-87
2022/03/22 14:33:45;;;;;;;7.55;6.20;;;16.20;8.50;;;;;;5002990;28;20246;-89
2022/03/22 14:46:14;;;;;;;8.48;5.57;;;16.00;8.40;;;;;;5004687;28;20254;-88
2022/03/22 15:22:24;;;;;;;8.82;4.40;;;15.70;8.20;;;;;;4996841;28;20220;-88
2022/03/22 15:25:09;;;;;;;7.90;4.60;;;15.70;8.20;;;;;;5013243;28;20224;-88
2022/03/22 15:27:45;;;;;;;6.32;4.35;;;15.70;8.20;;;;;;5000648;28;20240;-88
2022/03/22 15:30:16;;;;;;;5.45;4.30;;;15.70;7.90;;;;;;5001005;28;20215;-89
2022/03/22 15:32:46;;;;;;;6.63;3.95;;;15.80;6.90;;;;;;5005647;28;20649;-87
2022/03/22 15:38:28;;;;;;;6.80;4.43;;;15.70;6.60;;;;;;5016083;28;20261;-89
2022/03/22 15:46:26;;;;;;;5.78;4.00;;;15.60;6.10;;;;;;5011275;28;20204;-86
2022/03/22 15:52:16;;;;;;;4.63;4.22;;;15.50;5.90;;;;;;5000548;28;20203;-91
2022/03/22 15:55:27;;;;;;;4.70;3.97;;;15.40;5.60;;;;;;5010760;28;20295;-89
2022/03/22 15:58:23;;;;;;;7.97;4.30;;;15.40;6.70;;;;;;5012514;28;20282;-88
2022/03/22 16:06:44;;;;;;;6.68;3.90;;;15.10;6.20;;;;;;5009359;28;20275;-87
2022/03/22 16:15:42;;;;;;;4.93;3.85;;;15.00;6.30;;;;;;4999314;28;20223;-86
2022/03/22 16:18:11;;;;;;;4.53;3.97;;;15.00;6.10;;;;;;5007689;28;20226;-87
2022/03/22 16:21:23;;;;;;;5.90;4.13;;;14.90;6.10;;;;;;5005703;28;20216;-90
2022/03/22 16:39:43;;;;;;;5.63;4.05;;;14.50;7.40;;;;;;4984792;28;20234;-88
2022/03/22 16:42:41;;;;;;;5.25;3.63;;;14.40;7.30;;;;;;5018671;28;20247;-91
2022/03/22 16:45:10;;;;;;;8.55;3.85;;;14.40;7.40;;;;;;5005610;28;20223;-89
2022/03/22 16:50:56;;;;;;;8.38;3.97;;;14.20;7.20;;;;;;5003197;28;20278;-89
2022/03/22 16:56:21;;;;;;;7.15;4.28;;;14.00;8.00;;;;;;5007580;28;20235;-89
2022/03/22 17:08:02;;;;;;;4.40;3.58;;;13.70;6.90;;;;;;4987489;28;20253;-87
2022/03/22 17:11:00;;;;;;;5.43;3.53;;;13.60;6.90;;;;;;5005614;28;20307;-88
2022/03/22 17:13:35;;;;;;;4.00;3.42;;;13.60;6.80;;;;;;5010134;28;20262;-87
2022/03/22 17:16:22;;;;;;;5.82;4.03;;;13.50;6.80;;;;;;4999409;28;20603;-89
2022/03/22 17:18:53;;;;;;;6.72;4.18;;;13.40;7.20;;;;;;5003064;28;20215;-88
2022/03/22 17:21:24;;;;;;;7.47;4.10;;;13.20;7.80;;;;;;5009225;28;20196;-87
2022/03/22 17:23:56;;;;;;;4.40;4.00;;;13.10;7.90;;;;;;5007460;28;20237;-87
2022/03/22 17:26:33;;;;;;;8.27;4.22;;;13.00;8.40;;;;;;5001568;28;20203;-86
2022/03/22 17:29:02;;;;;;;5.13;4.05;;;12.80;8.70;;;;;;4999178;28;20220;-88
2022/03/22 17:31:52;;;;;;;9.98;4.28;;;12.60;8.90;;;;;;5001366;28;20236;-87
2022/03/22 17:34:20;;;;;;;5.90;4.40;;;12.50;9.20;;;;;;4995236;28;20500;-86
2022/03/22 17:36:55;;;;;;;6.78;4.30;;;12.40;9.50;;;;;;5000084;28;20211;-86
2022/03/22 17:39:24;;;;;;;4.85;4.22;;;12.20;9.80;;;;;;5004046;28;20203;-87
2022/03/22 17:41:51;;;;;;;7.40;4.30;;;12.10;10.00;;;;;;4996964;28;20219;-86
2022/03/22 17:44:19;;;;;;;9.07;4.72;;;12.00;10.10;;;;;;4994834;28;20200;-87
2022/03/22 17:46:46;;;;;;;8.38;4.55;;;11.90;10.40;;;;;;4986082;28;20199;-87
2022/03/22 17:49:14;;;;;;;8.93;4.55;;;11.70;10.80;;;;;;5017581;28;20196;-87
2022/03/22 17:51:41;;;;;;;7.25;4.25;;;11.60;11.00;;;;;;4998176;28;20204;-86
2022/03/22 17:54:09;;;;;;;11.93;4.80;;;11.50;11.40;;;;;;5004351;28;20263;-86
2022/03/22 17:56:38;;;;;;;8.25;5.25;;;11.40;11.40;;;;;;5000785;28;20239;-87
2022/03/22 17:59:10;;;;;;;7.60;5.05;;;11.30;11.60;;;;;;5000414;28;20254;-86
2022/03/22 18:01:37;;;;;;;13.63;6.03;;;11.20;11.80;;;;;;4999574;28;20196;-86
2022/03/22 18:04:04;;;;;;;9.00;5.80;;;11.10;12.00;;;;;;5002468;28;20268;-86
2022/03/22 18:06:31;;;;;;;11.27;6.03;;;11.00;12.20;;;;;;4997110;28;20203;-86
2022/03/22 18:08:59;;;;;;;10.68;5.80;;;10.90;12.30;;;;;;4996012;28;20278;-87
2022/03/22 18:14:11;;;;;;;12.25;5.63;;;10.80;12.60;;;;;;4995507;28;20263;-88
2022/03/22 18:16:43;;;;;;;7.05;5.28;;;10.80;12.80;;;;;;4995852;28;20525;-87
2022/03/22 18:19:10;;;;;;;7.13;4.97;;;10.70;12.90;;;;;;4994156;28;20198;-87
2022/03/22 18:21:38;;;;;;;6.13;5.07;;;10.60;13.10;;;;;;4997997;28;20205;-88
2022/03/22 18:24:07;;;;;;;6.97;4.80;;;10.60;13.90;;;;;;4988592;28;20211;-87
2022/03/22 18:26:34;;;;;;;6.32;5.20;;;10.50;13.90;;;;;;5000103;28;20208;-87
2022/03/22 18:29:01;;;;;;;8.82;5.57;;;10.50;14.20;;;;;;4996896;28;20253;-86
2022/03/22 18:31:30;;;;;;;9.02;5.15;;;10.40;14.40;;;;;;4994729;28;20204;-86
2022/03/22 18:33:59;;;;;;;10.43;5.35;;;10.30;14.10;;;;;;4995069;28;20212;-86
2022/03/22 18:36:26;;;;;;;7.85;5.28;;;10.30;14.50;;;;;;4996488;28;20266;-87
2022/03/22 18:38:56;;;;;;;11.82;5.25;;;10.10;14.60;;;;;;4993710;28;20584;-86
2022/03/22 18:41:24;;;;;;;9.15;6.38;;;10.10;14.70;;;;;;4992445;28;20271;-86
2022/03/22 18:43:51;;;;;;;7.13;5.60;;;10.00;15.00;;;;;;4995169;28;20783;-86
2022/03/22 18:46:20;;;;;;;7.93;5.50;;;9.90;16.30;;;;;;4993209;28;20204;-86
2022/03/22 18:48:49;;;;;;;10.07;5.07;;;9.90;16.80;;;;;;4993326;28;20220;-86
2022/03/22 18:51:18;;;;;;;5.72;4.75;;;9.80;17.10;;;;;;4992485;28;20463;-86
2022/03/22 18:53:45;;;;;;;9.63;5.43;;;9.70;17.50;;;;;;4994515;28;20274;-85
2022/03/22 18:56:27;;;;;;;11.57;5.60;;;9.60;17.70;;;;;;5005635;28;20587;-86
2022/03/22 19:01:52;;;;;;;9.07;5.60;;;9.50;19.70;;;;;;4997442;28;20200;-86
2022/03/22 19:04:32;;;;;;;10.20;6.40;;;9.40;19.10;;;;;;5003507;28;20200;-86
2022/03/22 19:07:01;;;;;;;7.57;5.40;;;9.40;18.70;;;;;;5004783;28;20575;-87
2022/03/22 19:09:29;;;;;;;8.68;5.20;;;9.30;19.10;;;;;;5000036;28;20208;-86
2022/03/22 19:11:59;;;;;;;10.73;6.20;;;9.30;19.50;;;;;;4999682;28;20316;-86
2022/03/22 19:14:30;;;;;;;10.93;6.70;;;9.30;19.60;;;;;;5003965;28;20709;-86
2022/03/22 19:20:03;;;;;;;10.32;5.82;;;9.30;20.60;;;;;;5002900;28;20214;-87
2022/03/22 19:22:31;;;;;;;7.88;5.82;;;9.20;20.30;;;;;;4997997;28;20327;-86
2022/03/22 19:25:01;;;;;;;11.10;5.88;;;9.10;21.20;;;;;;5006974;28;20196;-86
2022/03/22 19:27:30;;;;;;;8.10;5.90;;;9.10;20.60;;;;;;4997998;28;20673;-86
2022/03/22 19:29:58;;;;;;;9.63;5.28;;;9.10;20.90;;;;;;5004917;28;20231;-86
2022/03/22 19:38:23;;;;;;;10.75;5.90;;;8.90;20.60;;;;;;4996347;28;20287;-86
2022/03/22 19:40:58;;;;;;;9.20;5.75;;;8.90;21.90;;;;;;5002784;28;20215;-86
2022/03/22 19:43:25;;;;;;;11.85;6.18;;;8.80;21.90;;;;;;4999796;28;20306;-85
2022/03/22 19:45:58;;;;;;;11.70;5.95;;;8.80;22.50;;;;;;5006354;28;20237;-86
2022/03/22 19:48:26;;;;;;;11.35;5.72;;;8.70;24.10;;;;;;5000728;28;20262;-86
2022/03/22 19:50:55;;;;;;;10.65;5.47;;;8.70;24.10;;;;;;5004952;28;20207;-87
2022/03/22 19:53:23;;;;;;;11.02;5.97;;;8.60;24.00;;;;;;5000178;28;20244;-86
2022/03/22 19:55:56;;;;;;;11.52;6.20;;;8.50;24.00;;;;;;4997917;28;20263;-85
2022/03/22 19:58:24;;;;;;;15.10;8.18;;;8.50;23.90;;;;;;4998778;28;20305;-86
2022/03/22 20:01:00;;;;;;;13.45;8.73;;;8.50;23.90;;;;;;5001540;28;20290;-85
2022/03/22 20:03:28;;;;;;;14.07;8.60;;;8.40;23.90;;;;;;4999411;28;20239;-85